Time;durP1;ratioP1;P1;durP2;ratioP2;P2;SDS_P1;SDS_P2;PMS_P1;PMS_P2;Temp;Humidity;BMP_temperature;BMP_pressure;BME280_temperature;BME280_humidity;BME280_pressure;Samples;Min_cycle;Max_cycle;Signal;HPM_P1;HPM_P2
2021/09/08 00:00:12;;;;;;;18.73;12.68;;;12.80;99.90;;;;;;5000990;28;20081;-79
2021/09/08 00:02:39;;;;;;;22.13;13.57;;;12.70;99.90;;;;;;4993180;28;20042;-79
2021/09/08 00:05:08;;;;;;;16.85;12.40;;;12.60;99.90;;;;;;4991523;28;20046;-79
2021/09/08 00:07:36;;;;;;;21.38;13.23;;;12.50;99.90;;;;;;5017578;28;20130;-80
2021/09/08 00:10:05;;;;;;;16.88;12.40;;;12.50;99.90;;;;;;5007800;28;20057;-80
2021/09/08 00:12:32;;;;;;;18.83;12.93;;;12.40;99.90;;;;;;4981361;28;20523;-81
2021/09/08 00:14:59;;;;;;;18.98;12.95;;;12.30;99.90;;;;;;4971141;28;20116;-78
2021/09/08 00:17:26;;;;;;;20.25;13.15;;;12.50;99.90;;;;;;4986467;28;20499;-78
2021/09/08 00:19:53;;;;;;;22.20;14.23;;;12.40;99.90;;;;;;5006961;28;20480;-78
2021/09/08 00:22:19;;;;;;;19.20;12.65;;;12.50;99.90;;;;;;4989374;28;20104;-80
2021/09/08 00:24:46;;;;;;;18.00;12.07;;;12.40;99.90;;;;;;4975532;28;20049;-77
2021/09/08 00:27:13;;;;;;;20.08;13.43;;;12.60;99.90;;;;;;5003192;28;20511;-78
2021/09/08 00:29:40;;;;;;;19.70;12.32;;;12.50;99.90;;;;;;5027608;28;20076;-78
2021/09/08 00:32:08;;;;;;;18.45;13.25;;;12.40;99.90;;;;;;4981357;28;20046;-78
2021/09/08 00:34:36;;;;;;;15.75;11.90;;;12.40;99.90;;;;;;4970591;28;20578;-78
2021/09/08 00:37:03;;;;;;;19.48;14.60;;;12.40;99.90;;;;;;4984672;28;20041;-79
2021/09/08 00:39:32;;;;;;;17.98;12.55;;;12.40;99.90;;;;;;5013933;28;20069;-78
2021/09/08 00:42:08;;;;;;;20.20;14.23;;;12.40;99.90;;;;;;5022834;28;20567;-81
2021/09/08 00:44:34;;;;;;;20.98;13.52;;;12.40;99.90;;;;;;5006123;28;20050;-81
2021/09/08 00:47:01;;;;;;;22.15;13.13;;;12.50;99.90;;;;;;5005407;28;20065;-81
2021/09/08 00:49:29;;;;;;;19.33;12.45;;;12.40;99.90;;;;;;5007197;28;20042;-80
2021/09/08 00:52:01;;;;;;;20.73;13.55;;;12.30;99.90;;;;;;5021771;28;20041;-81
2021/09/08 00:54:29;;;;;;;19.50;13.57;;;12.30;99.90;;;;;;5022481;28;20042;-78
2021/09/08 00:56:58;;;;;;;21.77;14.52;;;12.30;99.90;;;;;;5028048;28;20046;-80
2021/09/08 00:59:25;;;;;;;20.02;14.45;;;12.40;99.90;;;;;;5020667;28;20056;-81
2021/09/08 01:01:52;;;;;;;22.98;14.20;;;12.40;99.90;;;;;;5005829;28;20046;-81
2021/09/08 01:04:19;;;;;;;24.15;13.63;;;12.30;99.90;;;;;;4977045;28;20042;-81
2021/09/08 01:06:47;;;;;;;20.77;14.23;;;12.30;99.90;;;;;;5018140;28;20452;-81
2021/09/08 01:09:16;;;;;;;21.38;14.18;;;12.40;99.90;;;;;;4973903;28;20419;-80
2021/09/08 01:11:43;;;;;;;22.23;14.43;;;12.40;99.90;;;;;;4986861;28;20149;-79
2021/09/08 01:14:10;;;;;;;23.40;15.07;;;12.30;99.90;;;;;;4990333;28;20217;-79
2021/09/08 01:16:37;;;;;;;23.30;14.55;;;12.20;99.90;;;;;;4976253;28;20404;-78
2021/09/08 01:19:04;;;;;;;18.55;13.05;;;12.20;99.90;;;;;;4990339;28;20042;-78
2021/09/08 01:21:31;;;;;;;24.42;14.10;;;12.10;99.90;;;;;;5006121;28;20049;-79
2021/09/08 01:24:06;;;;;;;24.38;14.35;;;12.10;99.90;;;;;;5039202;28;20547;-79
2021/09/08 01:26:40;;;;;;;;;;;12.20;99.90;;;;;;5008492;28;20050;-80
2021/09/08 01:29:08;;;;;;;26.98;13.85;;;12.20;99.90;;;;;;4986942;28;19922;-78
2021/09/08 01:31:35;;;;;;;22.98;13.68;;;12.10;99.90;;;;;;5021676;28;20081;-79
2021/09/08 01:34:03;;;;;;;29.98;14.88;;;12.10;99.90;;;;;;4972267;28;20096;-79
2021/09/08 01:36:40;;;;;;;27.73;16.58;;;12.10;99.90;;;;;;4970899;28;20056;-80
2021/09/08 01:39:08;;;;;;;27.33;14.98;;;12.10;99.90;;;;;;4989997;28;20065;-80
2021/09/08 01:41:35;;;;;;;22.73;14.88;;;12.10;99.90;;;;;;5004922;28;20665;-80
2021/09/08 01:44:02;;;;;;;22.45;14.82;;;12.10;99.90;;;;;;4987915;28;20065;-80
2021/09/08 01:46:29;;;;;;;20.77;14.45;;;12.00;99.90;;;;;;4988767;28;20120;-79
2021/09/08 01:48:56;;;;;;;22.05;15.73;;;12.00;99.90;;;;;;4974074;28;20054;-79
2021/09/08 01:51:23;;;;;;;26.25;15.77;;;12.00;99.90;;;;;;4989015;28;20044;-80
2021/09/08 01:53:49;;;;;;;25.90;15.48;;;12.00;99.90;;;;;;4972965;28;20254;-78
2021/09/08 01:56:16;;;;;;;28.80;16.70;;;12.00;99.90;;;;;;4997444;28;20594;-79
2021/09/08 01:58:44;;;;;;;25.88;15.48;;;12.00;99.90;;;;;;4987557;28;20069;-79
2021/09/08 02:01:10;;;;;;;24.35;15.90;;;12.00;99.90;;;;;;4989468;28;20046;-79
2021/09/08 02:03:38;;;;;;;25.13;16.08;;;11.90;99.90;;;;;;4989455;28;20042;-79
2021/09/08 02:06:25;;;;;;;26.73;16.15;;;12.10;99.90;;;;;;4985891;28;20112;-79
2021/09/08 02:08:54;;;;;;;25.40;16.50;;;12.10;99.90;;;;;;5003927;28;20046;-80
2021/09/08 02:11:21;;;;;;;29.90;17.85;;;12.20;99.90;;;;;;4988567;28;20057;-79
2021/09/08 02:13:49;;;;;;;28.25;16.35;;;12.10;99.90;;;;;;4988269;28;20414;-78
2021/09/08 02:16:18;;;;;;;26.85;17.73;;;12.30;99.90;;;;;;4988055;28;20064;-79
2021/09/08 02:18:46;;;;;;;24.92;16.88;;;12.50;99.90;;;;;;4996276;28;20661;-79
2021/09/08 02:21:12;;;;;;;25.02;17.27;;;12.70;99.90;;;;;;5028961;28;20043;-79
2021/09/08 02:23:39;;;;;;;28.42;17.23;;;12.90;99.90;;;;;;4993203;28;20145;-81
2021/09/08 02:26:06;;;;;;;23.48;15.80;;;13.20;99.90;;;;;;5018936;28;20723;-81
2021/09/08 02:28:33;;;;;;;32.05;17.45;;;13.40;99.90;;;;;;5023717;28;20045;-80
2021/09/08 02:31:00;;;;;;;26.45;16.02;;;13.70;99.90;;;;;;4979971;28;20077;-80
2021/09/08 02:33:27;;;;;;;25.45;14.95;;;13.90;99.90;;;;;;5005931;28;20129;-80
2021/09/08 02:35:54;;;;;;;23.65;15.18;;;14.20;99.90;;;;;;5003300;28;20042;-81
2021/09/08 02:38:21;;;;;;;25.45;16.05;;;14.40;99.90;;;;;;4993867;28;20507;-79
2021/09/08 02:40:47;;;;;;;22.30;15.50;;;14.70;99.90;;;;;;5012918;28;20056;-81
2021/09/08 02:43:14;;;;;;;24.55;16.23;;;14.80;99.90;;;;;;5037793;28;20096;-79
2021/09/08 02:45:41;;;;;;;21.23;14.48;;;14.90;99.90;;;;;;5001809;28;20039;-79
2021/09/08 02:48:08;;;;;;;25.27;16.08;;;14.90;99.90;;;;;;5017767;28;20042;-79
2021/09/08 02:50:35;;;;;;;21.92;14.90;;;14.90;99.90;;;;;;4971641;28;20104;-80
2021/09/08 02:53:02;;;;;;;24.15;15.32;;;14.90;99.90;;;;;;4971384;28;20065;-81
2021/09/08 02:55:29;;;;;;;22.10;15.40;;;15.00;99.90;;;;;;4974785;28;20092;-81
2021/09/08 02:57:56;;;;;;;25.83;16.30;;;15.10;99.90;;;;;;4992775;28;20064;-79
2021/09/08 03:00:22;;;;;;;27.10;17.42;;;15.00;99.90;;;;;;4987381;28;20087;-79
2021/09/08 03:02:49;;;;;;;26.77;16.00;;;15.00;99.90;;;;;;5004030;28;20479;-79
2021/09/08 03:05:16;;;;;;;24.88;16.25;;;15.10;99.90;;;;;;4986904;28;20446;-79
2021/09/08 03:07:43;;;;;;;20.05;15.38;;;15.00;99.90;;;;;;5015638;28;20491;-81
2021/09/08 03:10:10;;;;;;;25.15;15.55;;;15.00;99.90;;;;;;5009953;28;20056;-81
2021/09/08 03:12:37;;;;;;;23.02;15.88;;;15.00;99.90;;;;;;4999692;28;20054;-82
2021/09/08 03:15:06;;;;;;;25.25;16.77;;;14.90;99.90;;;;;;5008526;28;20270;-78
2021/09/08 03:17:34;;;;;;;27.20;16.17;;;14.90;99.90;;;;;;4975115;28;20085;-80
2021/09/08 03:20:00;;;;;;;25.15;16.95;;;14.90;99.90;;;;;;5007447;28;20042;-80
2021/09/08 03:22:27;;;;;;;25.67;16.60;;;14.90;99.90;;;;;;5006932;28;20056;-80
2021/09/08 03:24:54;;;;;;;25.20;16.98;;;14.90;99.90;;;;;;4992773;28;20404;-80
2021/09/08 03:27:21;;;;;;;26.50;16.83;;;14.80;99.90;;;;;;4994956;28;20238;-80
2021/09/08 03:29:48;;;;;;;24.98;16.38;;;14.80;99.90;;;;;;4986409;28;20064;-80
2021/09/08 03:32:14;;;;;;;27.15;16.77;;;14.90;99.90;;;;;;4996844;28;20042;-78
2021/09/08 03:34:41;;;;;;;27.35;18.23;;;14.80;99.90;;;;;;5004773;28;20128;-79
2021/09/08 03:37:09;;;;;;;30.55;18.17;;;14.60;99.90;;;;;;5002282;28;20103;-80
2021/09/08 03:39:35;;;;;;;28.63;18.73;;;14.40;99.90;;;;;;5011513;28;20058;-80
2021/09/08 03:42:03;;;;;;;27.83;18.60;;;14.40;99.90;;;;;;4973634;28;20092;-81
2021/09/08 03:44:30;;;;;;;24.33;18.13;;;14.50;99.90;;;;;;5023586;28;20149;-81
2021/09/08 03:46:57;;;;;;;28.88;19.88;;;14.30;99.90;;;;;;5006026;28;20049;-81
2021/09/08 03:49:23;;;;;;;27.25;19.58;;;14.20;99.90;;;;;;5008091;28;20054;-79
2021/09/08 03:51:50;;;;;;;28.25;19.13;;;13.90;99.90;;;;;;4990834;28;20053;-79
2021/09/08 03:54:17;;;;;;;29.73;19.55;;;13.80;99.90;;;;;;4975463;28;20050;-79
2021/09/08 03:56:44;;;;;;;29.02;18.10;;;13.70;99.90;;;;;;5001879;28;20052;-80
2021/09/08 03:59:11;;;;;;;32.25;20.90;;;13.50;99.90;;;;;;5020171;28;20056;-80
2021/09/08 04:01:38;;;;;;;32.40;19.13;;;13.50;99.90;;;;;;5014738;28;20046;-81
2021/09/08 04:04:05;;;;;;;31.25;20.45;;;13.50;99.90;;;;;;5003739;28;20056;-81
2021/09/08 04:06:32;;;;;;;32.50;20.35;;;13.40;99.90;;;;;;4986063;28;20069;-81
2021/09/08 04:08:59;;;;;;;35.75;21.13;;;13.40;99.90;;;;;;5008540;28;20556;-81
2021/09/08 04:11:26;;;;;;;33.40;21.70;;;13.30;99.90;;;;;;5007895;28;20052;-81
2021/09/08 04:13:52;;;;;;;34.92;22.83;;;13.40;99.90;;;;;;4991321;28;20171;-80
2021/09/08 04:16:19;;;;;;;33.60;21.80;;;13.30;99.90;;;;;;5010154;28;20117;-80
2021/09/08 04:18:46;;;;;;;38.40;21.80;;;13.20;99.90;;;;;;5007173;28;20539;-81
2021/09/08 04:21:13;;;;;;;33.78;22.63;;;13.20;99.90;;;;;;5005301;28;20240;-80
2021/09/08 04:23:40;;;;;;;33.80;22.70;;;13.20;99.90;;;;;;5006565;28;20396;-80
2021/09/08 04:26:07;;;;;;;29.92;22.27;;;13.10;99.90;;;;;;5007721;28;20042;-79
2021/09/08 04:28:33;;;;;;;33.13;22.17;;;13.00;99.90;;;;;;5010665;28;20060;-80
2021/09/08 04:31:00;;;;;;;35.50;23.85;;;13.00;99.90;;;;;;4990576;28;20130;-80
2021/09/08 04:33:27;;;;;;;36.03;21.73;;;13.00;99.90;;;;;;5029347;28;20104;-82
2021/09/08 04:35:56;;;;;;;33.45;20.30;;;13.10;99.90;;;;;;4990642;28;20049;-81
2021/09/08 04:38:26;;;;;;;39.50;24.02;;;13.10;99.90;;;;;;5010915;28;20096;-82
2021/09/08 04:40:54;;;;;;;35.47;22.45;;;13.00;99.90;;;;;;5006317;28;20077;-81
2021/09/08 04:43:21;;;;;;;34.65;23.13;;;13.00;99.90;;;;;;4990440;28;20050;-81
2021/09/08 04:45:48;;;;;;;38.40;23.08;;;13.00;99.90;;;;;;4971069;28;20054;-79
2021/09/08 04:48:15;;;;;;;35.00;22.23;;;13.00;99.90;;;;;;4990947;28;20049;-80
2021/09/08 04:50:42;;;;;;;39.80;23.40;;;13.00;99.90;;;;;;4974159;28;20054;-80
2021/09/08 04:53:09;;;;;;;34.17;22.67;;;12.90;99.90;;;;;;4971700;28;20054;-79
2021/09/08 04:55:35;;;;;;;42.50;26.02;;;12.80;99.90;;;;;;4967413;28;20053;-80
2021/09/08 04:58:02;;;;;;;34.47;22.17;;;12.90;99.90;;;;;;5031982;28;20625;-79
2021/09/08 05:00:29;;;;;;;38.45;22.10;;;12.70;99.90;;;;;;4979504;28;20058;-80
2021/09/08 05:02:56;;;;;;;37.65;22.33;;;12.70;99.90;;;;;;4990835;28;20050;-80
2021/09/08 05:05:23;;;;;;;37.97;24.90;;;12.80;99.90;;;;;;4973115;28;20069;-81
2021/09/08 05:07:50;;;;;;;37.22;22.98;;;12.70;99.90;;;;;;4970361;28;20515;-78
2021/09/08 05:10:17;;;;;;;42.58;23.83;;;12.80;99.90;;;;;;4977792;28;20133;-83
2021/09/08 05:12:45;;;;;;;40.78;22.48;;;12.80;99.90;;;;;;4990745;28;20060;-80
2021/09/08 05:15:12;;;;;;;37.75;22.58;;;12.80;99.90;;;;;;4972717;28;20042;-79
2021/09/08 05:17:39;;;;;;;37.78;22.85;;;12.80;99.90;;;;;;4989597;28;20085;-79
2021/09/08 05:20:07;;;;;;;36.10;22.73;;;12.90;99.90;;;;;;5007193;28;20057;-79
2021/09/08 05:22:34;;;;;;;35.45;22.63;;;12.80;99.90;;;;;;5023180;28;20073;-81
2021/09/08 05:25:01;;;;;;;39.13;23.83;;;12.80;99.90;;;;;;5040215;28;20068;-81
2021/09/08 05:27:27;;;;;;;36.20;22.67;;;12.80;99.90;;;;;;5009737;28;20049;-79
2021/09/08 05:29:54;;;;;;;37.88;22.88;;;12.90;99.90;;;;;;4992119;28;20038;-80
2021/09/08 05:32:21;;;;;;;37.83;23.90;;;12.90;99.90;;;;;;4989849;28;20050;-81
2021/09/08 05:34:48;;;;;;;36.35;23.20;;;12.80;99.90;;;;;;5003276;28;20053;-81
2021/09/08 05:37:15;;;;;;;39.17;25.17;;;12.90;99.90;;;;;;5013882;28;20079;-80
2021/09/08 05:39:41;;;;;;;38.45;23.50;;;13.00;99.90;;;;;;4991507;28;20061;-81
2021/09/08 05:42:08;;;;;;;32.97;22.35;;;13.00;99.90;;;;;;5007399;28;20046;-80
2021/09/08 05:44:35;;;;;;;35.47;22.65;;;13.00;99.90;;;;;;5006799;28;20062;-81
2021/09/08 05:47:02;;;;;;;35.13;21.60;;;13.10;99.90;;;;;;4988890;28;20519;-79
2021/09/08 05:49:29;;;;;;;34.00;22.20;;;13.30;99.90;;;;;;4990379;28;20241;-81
2021/09/08 05:51:55;;;;;;;34.28;21.02;;;13.30;99.90;;;;;;5022701;28;20057;-81
2021/09/08 05:54:22;;;;;;;34.38;21.77;;;13.30;99.90;;;;;;4990622;28;20059;-82
2021/09/08 05:56:49;;;;;;;34.38;19.85;;;13.30;99.90;;;;;;5014263;28;20052;-81
2021/09/08 05:59:16;;;;;;;38.80;22.95;;;13.50;99.90;;;;;;4980906;28;20065;-80
2021/09/08 06:01:43;;;;;;;31.20;21.00;;;13.60;99.90;;;;;;4973843;28;20056;-79
2021/09/08 06:04:10;;;;;;;33.72;21.40;;;13.70;99.90;;;;;;5005723;28;20518;-81
2021/09/08 06:06:37;;;;;;;32.30;20.70;;;13.70;99.90;;;;;;4972942;28;20056;-80
2021/09/08 06:09:04;;;;;;;35.22;22.42;;;13.80;99.90;;;;;;4973738;28;20061;-80
2021/09/08 06:11:31;;;;;;;31.10;20.52;;;14.00;99.90;;;;;;4988069;28;20053;-80
2021/09/08 06:13:58;;;;;;;31.77;19.30;;;14.00;99.90;;;;;;5017983;28;20133;-79
2021/09/08 06:16:25;;;;;;;30.55;19.10;;;14.10;99.90;;;;;;5005582;28;20050;-80
2021/09/08 06:18:52;;;;;;;31.30;20.08;;;14.20;99.90;;;;;;5023440;28;20053;-80
2021/09/08 06:21:20;;;;;;;36.05;20.75;;;14.40;99.90;;;;;;4989887;28;20058;-80
2021/09/08 06:23:48;;;;;;;32.00;20.38;;;14.40;99.90;;;;;;4971595;28;20046;-81
2021/09/08 06:26:14;;;;;;;29.75;20.17;;;14.40;99.90;;;;;;4980076;28;20128;-80
2021/09/08 06:28:41;;;;;;;31.73;20.17;;;14.50;99.90;;;;;;4982816;28;20470;-79
2021/09/08 06:31:10;;;;;;;31.08;19.13;;;14.70;99.90;;;;;;4990760;28;20042;-82
2021/09/08 06:33:38;;;;;;;28.60;18.70;;;14.80;99.90;;;;;;5010464;28;20042;-79
2021/09/08 06:36:05;;;;;;;30.92;19.13;;;14.90;99.90;;;;;;4975766;28;20042;-83
2021/09/08 06:38:32;;;;;;;32.58;20.55;;;15.00;99.90;;;;;;5008990;28;20046;-81
2021/09/08 06:41:00;;;;;;;28.33;19.83;;;15.00;99.90;;;;;;4989886;28;20050;-81
2021/09/08 06:43:27;;;;;;;27.30;18.50;;;15.10;99.90;;;;;;5026516;28;20136;-80
2021/09/08 06:45:54;;;;;;;26.92;19.10;;;15.20;99.90;;;;;;4983326;28;20042;-80
2021/09/08 06:48:21;;;;;;;34.28;19.20;;;15.30;99.90;;;;;;5013921;28;20542;-79
2021/09/08 06:50:48;;;;;;;28.05;18.08;;;15.40;99.90;;;;;;4979635;28;20050;-80
2021/09/08 06:53:15;;;;;;;25.77;17.77;;;15.60;99.90;;;;;;5010537;28;20052;-79
2021/09/08 06:55:42;;;;;;;22.52;16.23;;;15.70;99.90;;;;;;4994315;28;20060;-81
2021/09/08 06:58:09;;;;;;;21.65;16.65;;;15.80;99.90;;;;;;5004070;28;20042;-80
2021/09/08 07:00:36;;;;;;;25.77;16.20;;;16.00;99.90;;;;;;4976436;28;20105;-80
2021/09/08 07:03:03;;;;;;;26.73;17.55;;;16.20;99.90;;;;;;4996204;28;20269;-81
2021/09/08 07:05:30;;;;;;;25.25;18.30;;;16.30;99.90;;;;;;4998915;28;20065;-79
2021/09/08 07:07:58;;;;;;;25.25;17.95;;;16.50;99.90;;;;;;4972808;28;20058;-79
2021/09/08 07:10:24;;;;;;;26.80;17.70;;;16.70;99.90;;;;;;5007445;28;20507;-80
2021/09/08 07:12:51;;;;;;;25.02;18.85;;;17.00;99.90;;;;;;5003468;28;20046;-80
2021/09/08 07:15:18;;;;;;;24.75;18.08;;;17.50;99.90;;;;;;4994182;28;20045;-80
2021/09/08 07:17:45;;;;;;;24.58;18.40;;;17.90;99.90;;;;;;4995170;28;20046;-80
2021/09/08 07:20:12;;;;;;;22.80;17.85;;;18.20;99.90;;;;;;5008124;28;20643;-80
2021/09/08 07:22:39;;;;;;;21.38;18.25;;;18.70;99.90;;;;;;5024989;28;20042;-78
2021/09/08 07:25:06;;;;;;;21.35;19.08;;;19.00;99.90;;;;;;4992402;28;20061;-78
2021/09/08 07:27:34;;;;;;;22.33;18.88;;;19.40;99.90;;;;;;4995613;28;20104;-79
2021/09/08 07:30:01;;;;;;;21.25;19.05;;;19.60;99.90;;;;;;5023685;28;20144;-78
2021/09/08 07:32:28;;;;;;;23.00;20.33;;;19.80;99.90;;;;;;4991361;28;20112;-79
2021/09/08 07:34:58;;;;;;;23.13;20.70;;;20.10;99.90;;;;;;5020321;28;20065;-79
2021/09/08 07:37:26;;;;;;;22.75;20.33;;;20.20;99.90;;;;;;4971636;28;20688;-80
2021/09/08 07:39:54;;;;;;;25.45;20.60;;;20.20;99.90;;;;;;4992028;28;20482;-80
2021/09/08 07:42:21;;;;;;;24.15;21.80;;;20.40;99.90;;;;;;4990301;28;20045;-81
2021/09/08 07:44:48;;;;;;;24.38;21.48;;;20.10;99.90;;;;;;4990762;28;20076;-80
2021/09/08 07:47:15;;;;;;;21.67;19.58;;;20.10;99.90;;;;;;5006505;28;20061;-81
2021/09/08 07:49:42;;;;;;;22.20;20.17;;;20.10;99.90;;;;;;4975011;28;20037;-80
2021/09/08 07:52:09;;;;;;;23.88;21.38;;;20.40;99.90;;;;;;5007457;28;20046;-79
2021/09/08 07:54:35;;;;;;;23.88;21.65;;;20.40;99.90;;;;;;5008020;28;20076;-81
2021/09/08 07:57:03;;;;;;;22.60;20.33;;;20.70;99.90;;;;;;5011544;28;20038;-80
2021/09/08 07:59:30;;;;;;;24.20;21.65;;;20.60;99.90;;;;;;5022312;28;20064;-80
2021/09/08 08:01:56;;;;;;;24.00;21.48;;;20.80;99.90;;;;;;4980981;28;20056;-79
2021/09/08 08:04:26;;;;;;;21.70;19.63;;;20.90;99.90;;;;;;4978062;28;20403;-81
2021/09/08 08:06:53;;;;;;;22.60;20.48;;;21.00;99.90;;;;;;4969022;28;20081;-81
2021/09/08 08:09:20;;;;;;;25.00;20.50;;;21.30;99.90;;;;;;4990968;28;20046;-80
2021/09/08 08:11:47;;;;;;;21.90;19.90;;;21.60;99.90;;;;;;5007324;28;20123;-79
2021/09/08 08:14:16;;;;;;;22.25;20.17;;;21.70;99.90;;;;;;5013626;28;20052;-81
2021/09/08 08:16:43;;;;;;;21.27;19.23;;;21.50;99.90;;;;;;4987429;28;20046;-81
2021/09/08 08:19:10;;;;;;;23.50;20.92;;;21.40;99.90;;;;;;5011082;28;20077;-79
2021/09/08 08:21:37;;;;;;;23.83;21.35;;;21.90;99.90;;;;;;5027464;28;20099;-79
2021/09/08 08:24:04;;;;;;;23.48;21.27;;;22.20;99.90;;;;;;5008108;28;20061;-82
2021/09/08 08:26:31;;;;;;;23.02;20.92;;;22.20;99.90;;;;;;4979158;28;20045;-82
2021/09/08 08:28:58;;;;;;;24.13;21.58;;;22.20;99.90;;;;;;5030417;28;20049;-81
2021/09/08 08:31:25;;;;;;;23.00;20.95;;;21.90;99.90;;;;;;4973454;28;20048;-81
2021/09/08 08:33:52;;;;;;;21.30;19.38;;;21.90;99.90;;;;;;4990179;28;20045;-80
2021/09/08 08:36:19;;;;;;;21.33;19.52;;;21.90;99.90;;;;;;4983043;28;20132;-82
2021/09/08 08:38:46;;;;;;;22.80;20.73;;;22.20;99.90;;;;;;4990471;28;20046;-82
2021/09/08 08:41:13;;;;;;;22.05;20.15;;;22.20;99.90;;;;;;4989420;28;20569;-82
2021/09/08 08:43:40;;;;;;;21.83;19.80;;;22.10;99.90;;;;;;5023166;28;20081;-82
2021/09/08 08:46:07;;;;;;;21.80;19.92;;;22.40;99.90;;;;;;5022117;28;20443;-79
2021/09/08 08:48:35;;;;;;;22.30;20.50;;;22.60;99.90;;;;;;4990339;28;20058;-80
2021/09/08 08:51:02;;;;;;;22.33;20.30;;;22.60;99.90;;;;;;5019510;28;20112;-80
2021/09/08 08:53:29;;;;;;;21.88;20.13;;;22.60;99.90;;;;;;5006251;28;20191;-80
2021/09/08 08:55:57;;;;;;;21.10;19.23;;;22.60;99.90;;;;;;5023463;28;20101;-79
2021/09/08 08:58:23;;;;;;;22.45;20.40;;;22.70;99.90;;;;;;5033349;28;20049;-81
2021/09/08 09:01:13;;;;;;;21.55;19.45;;;22.60;99.90;;;;;;5021353;28;20045;-81
2021/09/08 09:03:41;;;;;;;22.35;20.00;;;22.30;99.90;;;;;;4995853;28;20080;-82
2021/09/08 09:06:13;;;;;;;22.17;20.27;;;22.30;99.90;;;;;;4994431;28;20157;-80
2021/09/08 09:08:41;;;;;;;22.48;20.60;;;22.30;99.90;;;;;;5009327;28;20034;-81
2021/09/08 09:11:09;;;;;;;22.73;20.73;;;22.20;99.90;;;;;;5009634;28;20056;-80
2021/09/08 09:13:36;;;;;;;23.90;21.42;;;22.10;99.90;;;;;;5010343;28;20440;-81
2021/09/08 09:16:08;;;;;;;21.63;19.83;;;22.20;99.90;;;;;;5007149;28;20129;-80
2021/09/08 09:18:41;;;;;;;21.42;19.42;;;22.30;99.90;;;;;;4971325;28;20141;-81
2021/09/08 09:21:14;;;;;;;21.58;19.70;;;22.00;99.90;;;;;;4992649;28;20049;-80
2021/09/08 09:23:49;;;;;;;22.17;19.98;;;22.00;99.90;;;;;;5049119;28;20049;-82
2021/09/08 09:26:37;;;;;;;21.52;19.73;;;21.80;99.90;;;;;;5018220;28;20649;-80
2021/09/08 09:29:12;;;;;;;22.00;19.90;;;22.20;99.90;;;;;;5008076;28;20128;-80
2021/09/08 09:32:11;;;;;;;19.85;18.10;;;22.40;99.90;;;;;;4973884;28;20412;-79
2021/09/08 09:34:40;;;;;;;22.67;20.67;;;22.80;99.90;;;;;;4975216;28;20099;-80
2021/09/08 09:37:09;;;;;;;22.65;20.48;;;22.50;99.90;;;;;;4988263;28;20041;-80
2021/09/08 09:39:38;;;;;;;20.88;18.98;;;22.10;99.90;;;;;;4989922;28;20085;-81
2021/09/08 09:42:13;;;;;;;21.90;19.85;;;22.30;99.90;;;;;;4974173;28;20056;-80
2021/09/08 09:44:41;;;;;;;22.38;20.48;;;22.10;99.90;;;;;;4990214;28;20057;-79
2021/09/08 09:47:08;;;;;;;21.30;19.40;;;22.20;99.90;;;;;;5005341;28;20056;-81
2021/09/08 09:49:36;;;;;;;20.83;19.13;;;22.60;99.90;;;;;;5006404;28;20230;-81
2021/09/08 09:52:06;;;;;;;21.70;19.60;;;22.90;99.90;;;;;;5021530;28;20050;-80
2021/09/08 09:54:34;;;;;;;23.08;20.95;;;23.30;99.90;;;;;;4974300;28;20140;-83
2021/09/08 09:57:01;;;;;;;22.50;20.35;;;23.30;99.90;;;;;;4981878;28;20117;-82
2021/09/08 09:59:29;;;;;;;21.23;19.33;;;23.60;99.90;;;;;;5010481;28;20069;-81
2021/09/08 10:01:55;;;;;;;22.52;20.20;;;23.50;99.90;;;;;;5029164;28;20043;-81
2021/09/08 10:04:23;;;;;;;22.42;20.17;;;23.30;99.90;;;;;;4990184;28;20058;-81
2021/09/08 10:06:52;;;;;;;21.42;19.73;;;23.00;99.90;;;;;;4977893;28;20095;-80
2021/09/08 10:09:20;;;;;;;23.30;21.02;;;22.80;99.90;;;;;;5023912;28;20053;-79
2021/09/08 10:11:51;;;;;;;22.05;20.05;;;22.70;99.90;;;;;;4990102;28;20054;-82
2021/09/08 10:14:25;;;;;;;22.95;20.98;;;22.90;99.90;;;;;;4966051;28;20165;-82
2021/09/08 10:16:53;;;;;;;22.88;20.73;;;23.20;99.90;;;;;;4991786;28;20042;-79
2021/09/08 10:19:25;;;;;;;23.52;21.20;;;23.50;99.90;;;;;;5015461;28;20046;-80
2021/09/08 10:22:03;;;;;;;21.45;19.60;;;23.60;99.90;;;;;;5014096;28;20259;-81
2021/09/08 10:24:30;;;;;;;22.45;20.45;;;23.80;99.90;;;;;;4978365;28;20042;-82
2021/09/08 10:26:57;;;;;;;21.42;19.40;;;24.10;99.90;;;;;;5001193;28;20235;-81
2021/09/08 10:29:28;;;;;;;22.20;20.25;;;23.70;99.90;;;;;;5041206;28;20404;-79
2021/09/08 10:31:57;;;;;;;24.42;19.85;;;23.90;99.90;;;;;;4980538;28;20054;-80
2021/09/08 10:34:25;;;;;;;21.70;19.75;;;23.80;99.90;;;;;;4994432;28;20050;-81
2021/09/08 10:36:53;;;;;;;24.52;21.95;;;23.90;99.90;;;;;;4992686;28;20504;-81
2021/09/08 10:39:20;;;;;;;21.95;19.92;;;23.60;99.90;;;;;;4992500;28;20593;-79
2021/09/08 10:41:52;;;;;;;22.20;20.15;;;23.90;99.90;;;;;;4987338;28;20049;-79
2021/09/08 10:44:39;;;;;;;22.75;20.67;;;23.90;99.90;;;;;;5004581;28;20042;-79
2021/09/08 10:47:06;;;;;;;22.90;20.25;;;23.90;99.90;;;;;;4971863;28;20265;-79
2021/09/08 10:49:36;;;;;;;24.42;22.08;;;24.20;99.90;;;;;;4994405;28;20636;-79
2021/09/08 10:52:04;;;;;;;22.52;20.60;;;24.10;99.90;;;;;;4989664;28;20558;-82
2021/09/08 10:54:31;;;;;;;23.88;21.58;;;23.90;99.90;;;;;;5013503;28;20053;-81
2021/09/08 10:56:58;;;;;;;22.95;20.90;;;23.70;99.90;;;;;;5028435;28;20038;-81
2021/09/08 10:59:25;;;;;;;24.23;21.70;;;23.80;99.90;;;;;;5006483;28;20045;-80
2021/09/08 11:01:52;;;;;;;25.35;21.83;;;24.00;99.90;;;;;;4994946;28;20521;-78
2021/09/08 11:04:20;;;;;;;23.48;21.02;;;24.30;99.90;;;;;;5011021;28;20533;-78
2021/09/08 11:06:49;;;;;;;23.73;21.80;;;24.50;99.90;;;;;;4978465;28;20048;-79
2021/09/08 11:09:17;;;;;;;23.60;21.60;;;24.20;99.90;;;;;;5008729;28;20064;-78
2021/09/08 11:11:56;;;;;;;23.58;21.48;;;24.30;99.90;;;;;;5011574;28;20023;-82
2021/09/08 11:14:46;;;;;;;23.83;21.45;;;24.60;99.90;;;;;;4988949;28;20077;-79
2021/09/08 11:17:23;;;;;;;23.60;21.55;;;24.40;99.90;;;;;;5014481;28;20126;-80
2021/09/08 11:19:59;;;;;;;23.98;21.92;;;24.00;99.90;;;;;;5001069;28;20149;-77
2021/09/08 11:22:26;;;;;;;24.15;21.85;;;24.00;99.90;;;;;;4997626;28;20151;-78
2021/09/08 11:25:06;;;;;;;23.67;21.23;;;24.00;99.90;;;;;;4992821;28;20325;-78
2021/09/08 11:27:35;;;;;;;23.10;21.05;;;24.40;99.90;;;;;;5002530;28;20448;-81
2021/09/08 11:30:06;;;;;;;24.15;22.05;;;24.70;99.90;;;;;;5006551;28;20073;-80
2021/09/08 11:32:52;;;;;;;21.98;20.08;;;24.70;99.90;;;;;;4995397;28;20156;-78
2021/09/08 11:35:47;;;;;;;22.48;20.58;;;24.30;99.90;;;;;;4978317;28;20049;-80
2021/09/08 11:38:19;;;;;;;21.17;18.90;;;24.00;99.90;;;;;;5005942;28;20054;-79
2021/09/08 11:40:48;;;;;;;23.33;21.13;;;23.90;99.90;;;;;;4971736;28;20059;-79
2021/09/08 11:43:36;;;;;;;22.13;20.05;;;24.00;99.90;;;;;;5005561;28;20668;-78
2021/09/08 11:46:23;;;;;;;22.02;20.05;;;24.70;99.90;;;;;;4960512;28;20042;-79
2021/09/08 11:49:01;;;;;;;23.73;21.55;;;25.10;99.90;;;;;;5008301;28;20594;-79
2021/09/08 11:51:27;;;;;;;23.30;21.20;;;25.40;99.90;;;;;;5008084;28;20508;-81
2021/09/08 11:53:56;;;;;;;21.63;19.65;;;25.20;99.90;;;;;;4991853;28;20041;-81
2021/09/08 11:56:25;;;;;;;23.10;21.08;;;25.20;99.90;;;;;;4978390;28;20034;-81
2021/09/08 11:58:57;;;;;;;23.58;21.33;;;24.90;99.90;;;;;;4986346;28;20045;-81
2021/09/08 12:01:25;;;;;;;23.40;21.40;;;25.20;99.90;;;;;;5011559;28;20057;-80
2021/09/08 12:03:57;;;;;;;21.38;19.58;;;25.10;99.90;;;;;;4999591;28;20046;-80
2021/09/08 12:06:29;;;;;;;21.85;19.95;;;25.00;99.90;;;;;;5000724;28;20053;-80
2021/09/08 12:09:11;;;;;;;23.67;21.42;;;25.00;99.90;;;;;;5025063;28;20050;-81
2021/09/08 12:11:46;;;;;;;21.77;19.98;;;25.10;99.90;;;;;;5008403;28;20053;-81
2021/09/08 12:14:20;;;;;;;22.40;20.42;;;24.80;99.90;;;;;;4974656;28;20156;-82
2021/09/08 12:16:49;;;;;;;22.77;20.67;;;24.80;99.90;;;;;;5006624;28;20165;-82
2021/09/08 12:19:27;;;;;;;21.60;19.83;;;24.90;99.90;;;;;;4975082;28;20284;-82
2021/09/08 12:22:09;;;;;;;21.48;19.67;;;25.10;99.90;;;;;;4990416;28;20087;-81
2021/09/08 12:24:59;;;;;;;22.55;20.65;;;25.20;99.90;;;;;;4990950;28;20076;-80
2021/09/08 12:27:41;;;;;;;22.60;20.70;;;25.30;99.90;;;;;;4998190;28;20056;-81
2021/09/08 12:30:14;;;;;;;24.08;22.02;;;25.00;99.90;;;;;;4974374;28;20145;-79
2021/09/08 12:32:47;;;;;;;22.80;20.55;;;24.40;99.90;;;;;;4974889;28;20149;-79
2021/09/08 12:35:53;;;;;;;22.15;20.17;;;24.50;99.90;;;;;;4974656;28;20045;-80